sensor_id;sensor_type;location;lat;lon;timestamp;temperature;humidity
74087;SHT30;62445;48.406;-4.518;2023-08-21T00:00:46;26.20;62.33
74087;SHT30;62445;48.406;-4.518;2023-08-21T00:03:12;26.20;62.27
74087;SHT30;62445;48.406;-4.518;2023-08-21T00:05:37;26.20;62.31
74087;SHT30;62445;48.406;-4.518;2023-08-21T00:08:03;26.18;62.21
74087;SHT30;62445;48.406;-4.518;2023-08-21T00:10:29;26.23;62.33
74087;SHT30;62445;48.406;-4.518;2023-08-21T00:12:55;26.18;62.28
74087;SHT30;62445;48.406;-4.518;2023-08-21T00:15:20;26.17;62.32
74087;SHT30;62445;48.406;-4.518;2023-08-21T00:17:46;26.16;62.28
74087;SHT30;62445;48.406;-4.518;2023-08-21T00:20:11;26.16;62.25
74087;SHT30;62445;48.406;-4.518;2023-08-21T00:22:37;26.16;62.22
74087;SHT30;62445;48.406;-4.518;2023-08-21T00:25:03;26.16;62.30
74087;SHT30;62445;48.406;-4.518;2023-08-21T00:27:29;26.14;62.27
74087;SHT30;62445;48.406;-4.518;2023-08-21T00:29:55;26.16;62.28
74087;SHT30;62445;48.406;-4.518;2023-08-21T00:32:20;26.13;62.23
74087;SHT30;62445;48.406;-4.518;2023-08-21T00:34:45;26.13;62.28
74087;SHT30;62445;48.406;-4.518;2023-08-21T00:37:11;26.13;62.23
74087;SHT30;62445;48.406;-4.518;2023-08-21T00:39:36;26.13;62.24
74087;SHT30;62445;48.406;-4.518;2023-08-21T00:42:02;26.10;62.23
74087;SHT30;62445;48.406;-4.518;2023-08-21T00:44:27;26.10;62.22
74087;SHT30;62445;48.406;-4.518;2023-08-21T00:46:53;26.12;62.24
74087;SHT30;62445;48.406;-4.518;2023-08-21T00:49:19;26.10;62.31
74087;SHT30;62445;48.406;-4.518;2023-08-21T00:51:46;26.12;62.24
74087;SHT30;62445;48.406;-4.518;2023-08-21T00:54:12;26.09;62.21
74087;SHT30;62445;48.406;-4.518;2023-08-21T00:56:38;26.09;62.31
74087;SHT30;62445;48.406;-4.518;2023-08-21T00:59:03;26.09;62.28
74087;SHT30;62445;48.406;-4.518;2023-08-21T01:01:29;26.10;62.22
74087;SHT30;62445;48.406;-4.518;2023-08-21T01:03:55;26.07;62.22
74087;SHT30;62445;48.406;-4.518;2023-08-21T01:06:20;26.06;62.25
74087;SHT30;62445;48.406;-4.518;2023-08-21T01:09:29;26.06;62.12
74087;SHT30;62445;48.406;-4.518;2023-08-21T01:11:58;26.06;62.22
74087;SHT30;62445;48.406;-4.518;2023-08-21T01:16:56;26.06;62.23
74087;SHT30;62445;48.406;-4.518;2023-08-21T01:19:35;26.06;62.21
74087;SHT30;62445;48.406;-4.518;2023-08-21T01:22:01;26.04;62.21
74087;SHT30;62445;48.406;-4.518;2023-08-21T01:24:27;26.03;62.26
74087;SHT30;62445;48.406;-4.518;2023-08-21T01:26:52;26.04;62.21
74087;SHT30;62445;48.406;-4.518;2023-08-21T01:29:17;26.04;62.17
74087;SHT30;62445;48.406;-4.518;2023-08-21T01:31:47;26.04;62.16
74087;SHT30;62445;48.406;-4.518;2023-08-21T01:34:15;26.01;62.17
74087;SHT30;62445;48.406;-4.518;2023-08-21T01:36:42;26.01;62.15
74087;SHT30;62445;48.406;-4.518;2023-08-21T01:39:08;26.01;62.21
74087;SHT30;62445;48.406;-4.518;2023-08-21T01:41:34;26.03;62.12
74087;SHT30;62445;48.406;-4.518;2023-08-21T01:43:59;26.01;62.13
74087;SHT30;62445;48.406;-4.518;2023-08-21T01:46:25;26.01;62.08
74087;SHT30;62445;48.406;-4.518;2023-08-21T01:48:50;26.00;62.15
74087;SHT30;62445;48.406;-4.518;2023-08-21T01:51:15;26.00;62.15
74087;SHT30;62445;48.406;-4.518;2023-08-21T01:53:41;26.01;62.13
74087;SHT30;62445;48.406;-4.518;2023-08-21T01:56:06;26.00;62.12
74087;SHT30;62445;48.406;-4.518;2023-08-21T01:58:32;25.99;62.19
74087;SHT30;62445;48.406;-4.518;2023-08-21T02:00:57;25.99;62.18
74087;SHT30;62445;48.406;-4.518;2023-08-21T02:03:25;26.00;62.22
74087;SHT30;62445;48.406;-4.518;2023-08-21T02:05:50;25.99;62.31
74087;SHT30;62445;48.406;-4.518;2023-08-21T02:08:17;25.97;62.26
74087;SHT30;62445;48.406;-4.518;2023-08-21T02:10:51;25.97;62.18
74087;SHT30;62445;48.406;-4.518;2023-08-21T02:13:18;25.97;62.20
74087;SHT30;62445;48.406;-4.518;2023-08-21T02:15:44;25.99;62.22
74087;SHT30;62445;48.406;-4.518;2023-08-21T02:18:09;25.96;62.24
74087;SHT30;62445;48.406;-4.518;2023-08-21T02:20:35;25.97;62.15
74087;SHT30;62445;48.406;-4.518;2023-08-21T02:23:00;25.96;62.23
74087;SHT30;62445;48.406;-4.518;2023-08-21T02:25:26;25.96;62.06
74087;SHT30;62445;48.406;-4.518;2023-08-21T02:27:51;25.93;62.24
74087;SHT30;62445;48.406;-4.518;2023-08-21T02:30:17;25.96;62.11
74087;SHT30;62445;48.406;-4.518;2023-08-21T02:32:42;25.94;62.11
74087;SHT30;62445;48.406;-4.518;2023-08-21T02:35:08;25.96;62.11
74087;SHT30;62445;48.406;-4.518;2023-08-21T02:37:34;25.93;62.14
74087;SHT30;62445;48.406;-4.518;2023-08-21T02:40:00;25.94;62.14
74087;SHT30;62445;48.406;-4.518;2023-08-21T02:42:25;25.93;62.13
74087;SHT30;62445;48.406;-4.518;2023-08-21T02:44:51;25.92;62.11
74087;SHT30;62445;48.406;-4.518;2023-08-21T02:47:16;25.92;62.13
74087;SHT30;62445;48.406;-4.518;2023-08-21T02:49:42;25.93;62.12
74087;SHT30;62445;48.406;-4.518;2023-08-21T02:52:07;25.93;62.06
74087;SHT30;62445;48.406;-4.518;2023-08-21T02:54:33;25.92;62.09
74087;SHT30;62445;48.406;-4.518;2023-08-21T02:56:58;25.90;62.05
74087;SHT30;62445;48.406;-4.518;2023-08-21T02:59:24;25.92;62.12
74087;SHT30;62445;48.406;-4.518;2023-08-21T03:01:49;25.92;62.03
74087;SHT30;62445;48.406;-4.518;2023-08-21T03:04:14;25.90;62.04
74087;SHT30;62445;48.406;-4.518;2023-08-21T03:06:40;25.90;61.99
74087;SHT30;62445;48.406;-4.518;2023-08-21T03:09:05;25.89;61.99
74087;SHT30;62445;48.406;-4.518;2023-08-21T03:11:30;25.90;62.10
74087;SHT30;62445;48.406;-4.518;2023-08-21T03:13:56;25.89;62.03
74087;SHT30;62445;48.406;-4.518;2023-08-21T03:16:21;25.88;61.98
74087;SHT30;62445;48.406;-4.518;2023-08-21T03:18:58;25.90;61.97
74087;SHT30;62445;48.406;-4.518;2023-08-21T03:21:24;25.86;62.03
74087;SHT30;62445;48.406;-4.518;2023-08-21T03:23:57;25.89;62.04
74087;SHT30;62445;48.406;-4.518;2023-08-21T03:26:23;25.86;62.01
74087;SHT30;62445;48.406;-4.518;2023-08-21T03:28:49;25.88;62.04
74087;SHT30;62445;48.406;-4.518;2023-08-21T03:31:14;25.86;62.11
74087;SHT30;62445;48.406;-4.518;2023-08-21T03:33:40;25.88;62.09
74087;SHT30;62445;48.406;-4.518;2023-08-21T03:36:05;25.86;62.01
74087;SHT30;62445;48.406;-4.518;2023-08-21T03:38:31;25.88;62.04
74087;SHT30;62445;48.406;-4.518;2023-08-21T03:40:56;25.86;62.01
74087;SHT30;62445;48.406;-4.518;2023-08-21T03:43:22;25.86;62.02
74087;SHT30;62445;48.406;-4.518;2023-08-21T03:45:47;25.88;62.07
74087;SHT30;62445;48.406;-4.518;2023-08-21T03:48:13;25.83;62.02
74087;SHT30;62445;48.406;-4.518;2023-08-21T03:50:38;25.85;61.95
74087;SHT30;62445;48.406;-4.518;2023-08-21T03:53:04;25.86;62.07
74087;SHT30;62445;48.406;-4.518;2023-08-21T03:55:30;25.85;61.99
74087;SHT30;62445;48.406;-4.518;2023-08-21T03:57:56;25.85;61.95
74087;SHT30;62445;48.406;-4.518;2023-08-21T04:00:21;25.85;62.03
74087;SHT30;62445;48.406;-4.518;2023-08-21T04:02:46;25.85;61.97
74087;SHT30;62445;48.406;-4.518;2023-08-21T04:05:12;25.85;62.01
74087;SHT30;62445;48.406;-4.518;2023-08-21T04:07:38;25.85;61.99
74087;SHT30;62445;48.406;-4.518;2023-08-21T04:10:04;25.85;62.07
74087;SHT30;62445;48.406;-4.518;2023-08-21T04:12:29;25.80;62.01
74087;SHT30;62445;48.406;-4.518;2023-08-21T04:14:55;25.83;61.99
74087;SHT30;62445;48.406;-4.518;2023-08-21T04:17:23;25.83;61.98
74087;SHT30;62445;48.406;-4.518;2023-08-21T04:19:50;25.83;61.97
74087;SHT30;62445;48.406;-4.518;2023-08-21T04:22:15;25.82;62.07
74087;SHT30;62445;48.406;-4.518;2023-08-21T04:24:41;25.83;62.05
74087;SHT30;62445;48.406;-4.518;2023-08-21T04:27:07;25.80;62.03
74087;SHT30;62445;48.406;-4.518;2023-08-21T04:29:34;25.83;62.08
74087;SHT30;62445;48.406;-4.518;2023-08-21T04:32:00;25.83;62.03
74087;SHT30;62445;48.406;-4.518;2023-08-21T04:34:25;25.80;62.03
74087;SHT30;62445;48.406;-4.518;2023-08-21T04:36:51;25.82;62.02
74087;SHT30;62445;48.406;-4.518;2023-08-21T04:39:17;25.83;62.00
74087;SHT30;62445;48.406;-4.518;2023-08-21T04:41:43;25.80;62.01
74087;SHT30;62445;48.406;-4.518;2023-08-21T04:44:08;25.79;61.96
74087;SHT30;62445;48.406;-4.518;2023-08-21T04:46:33;25.80;61.96
74087;SHT30;62445;48.406;-4.518;2023-08-21T04:48:59;25.80;62.03
74087;SHT30;62445;48.406;-4.518;2023-08-21T04:51:24;25.80;62.03
74087;SHT30;62445;48.406;-4.518;2023-08-21T04:53:50;25.80;61.95
74087;SHT30;62445;48.406;-4.518;2023-08-21T04:56:15;25.80;62.04
74087;SHT30;62445;48.406;-4.518;2023-08-21T04:58:41;25.82;61.99
74087;SHT30;62445;48.406;-4.518;2023-08-21T05:01:06;25.76;62.04
74087;SHT30;62445;48.406;-4.518;2023-08-21T05:03:31;25.82;61.99
74087;SHT30;62445;48.406;-4.518;2023-08-21T05:05:57;25.80;61.99
74087;SHT30;62445;48.406;-4.518;2023-08-21T05:08:23;25.78;61.95
74087;SHT30;62445;48.406;-4.518;2023-08-21T05:10:57;25.78;62.06
74087;SHT30;62445;48.406;-4.518;2023-08-21T05:13:23;25.79;61.97
74087;SHT30;62445;48.406;-4.518;2023-08-21T05:15:55;25.80;61.81
74087;SHT30;62445;48.406;-4.518;2023-08-21T05:18:22;25.78;61.82
74087;SHT30;62445;48.406;-4.518;2023-08-21T05:20:49;25.76;61.79
74087;SHT30;62445;48.406;-4.518;2023-08-21T05:23:14;25.76;61.71
74087;SHT30;62445;48.406;-4.518;2023-08-21T05:25:40;25.78;61.57
74087;SHT30;62445;48.406;-4.518;2023-08-21T05:28:06;25.76;61.56
74087;SHT30;62445;48.406;-4.518;2023-08-21T05:30:32;25.75;61.39
74087;SHT30;62445;48.406;-4.518;2023-08-21T05:32:57;25.72;61.27
74087;SHT30;62445;48.406;-4.518;2023-08-21T05:35:23;25.72;61.38
74087;SHT30;62445;48.406;-4.518;2023-08-21T05:37:48;25.70;61.32
74087;SHT30;62445;48.406;-4.518;2023-08-21T05:40:14;25.70;61.21
74087;SHT30;62445;48.406;-4.518;2023-08-21T05:42:39;25.69;61.18
74087;SHT30;62445;48.406;-4.518;2023-08-21T05:45:05;25.70;61.17
74087;SHT30;62445;48.406;-4.518;2023-08-21T05:47:31;25.68;61.02
74087;SHT30;62445;48.406;-4.518;2023-08-21T05:49:56;25.68;60.96
74087;SHT30;62445;48.406;-4.518;2023-08-21T05:52:22;25.69;60.91
74087;SHT30;62445;48.406;-4.518;2023-08-21T05:54:48;25.69;60.95
74087;SHT30;62445;48.406;-4.518;2023-08-21T05:57:14;25.66;60.92
74087;SHT30;62445;48.406;-4.518;2023-08-21T05:59:44;25.70;61.04
74087;SHT30;62445;48.406;-4.518;2023-08-21T06:02:10;25.68;60.96
74087;SHT30;62445;48.406;-4.518;2023-08-21T06:04:37;25.66;60.90
74087;SHT30;62445;48.406;-4.518;2023-08-21T06:07:02;25.68;60.92
74087;SHT30;62445;48.406;-4.518;2023-08-21T06:09:29;25.68;61.18
74087;SHT30;62445;48.406;-4.518;2023-08-21T06:11:55;25.66;61.04
74087;SHT30;62445;48.406;-4.518;2023-08-21T06:14:20;25.65;61.03
74087;SHT30;62445;48.406;-4.518;2023-08-21T06:16:54;25.69;60.98
74087;SHT30;62445;48.406;-4.518;2023-08-21T06:19:19;25.65;61.08
74087;SHT30;62445;48.406;-4.518;2023-08-21T06:21:44;25.68;60.92
74087;SHT30;62445;48.406;-4.518;2023-08-21T06:24:10;25.66;61.00
74087;SHT30;62445;48.406;-4.518;2023-08-21T06:26:35;25.68;60.97
74087;SHT30;62445;48.406;-4.518;2023-08-21T06:29:01;25.68;60.63
74087;SHT30;62445;48.406;-4.518;2023-08-21T06:31:26;25.65;60.56
74087;SHT30;62445;48.406;-4.518;2023-08-21T06:33:52;25.68;60.55
74087;SHT30;62445;48.406;-4.518;2023-08-21T06:36:17;25.68;60.59
74087;SHT30;62445;48.406;-4.518;2023-08-21T06:38:42;25.69;60.51
74087;SHT30;62445;48.406;-4.518;2023-08-21T06:41:09;25.70;60.51
74087;SHT30;62445;48.406;-4.518;2023-08-21T06:43:34;25.68;60.53
74087;SHT30;62445;48.406;-4.518;2023-08-21T06:46:01;25.69;60.71
74087;SHT30;62445;48.406;-4.518;2023-08-21T06:48:26;25.70;60.59
74087;SHT30;62445;48.406;-4.518;2023-08-21T06:50:51;25.69;60.66
74087;SHT30;62445;48.406;-4.518;2023-08-21T06:53:17;25.69;60.94
74087;SHT30;62445;48.406;-4.518;2023-08-21T06:55:44;25.69;60.88
74087;SHT30;62445;48.406;-4.518;2023-08-21T06:58:10;25.72;61.07
74087;SHT30;62445;48.406;-4.518;2023-08-21T07:00:35;25.72;60.89
74087;SHT30;62445;48.406;-4.518;2023-08-21T07:03:00;25.73;61.00
74087;SHT30;62445;48.406;-4.518;2023-08-21T07:05:26;25.76;61.14
74087;SHT30;62445;48.406;-4.518;2023-08-21T07:07:51;25.75;61.28
74087;SHT30;62445;48.406;-4.518;2023-08-21T07:10:18;25.79;61.30
74087;SHT30;62445;48.406;-4.518;2023-08-21T07:12:46;25.80;61.30
74087;SHT30;62445;48.406;-4.518;2023-08-21T07:15:12;25.82;61.25
74087;SHT30;62445;48.406;-4.518;2023-08-21T07:17:37;25.82;61.10
74087;SHT30;62445;48.406;-4.518;2023-08-21T07:20:03;25.85;61.04
74087;SHT30;62445;48.406;-4.518;2023-08-21T07:22:29;25.86;61.00
74087;SHT30;62445;48.406;-4.518;2023-08-21T07:24:55;25.82;60.95
74087;SHT30;62445;48.406;-4.518;2023-08-21T07:27:20;25.83;61.02
74087;SHT30;62445;48.406;-4.518;2023-08-21T07:29:46;25.86;60.93
74087;SHT30;62445;48.406;-4.518;2023-08-21T07:32:11;25.86;60.96
74087;SHT30;62445;48.406;-4.518;2023-08-21T07:34:37;25.85;60.93
74087;SHT30;62445;48.406;-4.518;2023-08-21T07:37:02;25.86;60.98
74087;SHT30;62445;48.406;-4.518;2023-08-21T07:39:28;25.86;60.91
74087;SHT30;62445;48.406;-4.518;2023-08-21T07:41:53;25.88;60.89
74087;SHT30;62445;48.406;-4.518;2023-08-21T07:44:18;25.90;60.92
74087;SHT30;62445;48.406;-4.518;2023-08-21T07:46:44;25.88;60.94
74087;SHT30;62445;48.406;-4.518;2023-08-21T07:49:09;25.90;60.90
74087;SHT30;62445;48.406;-4.518;2023-08-21T07:51:35;25.92;60.94
74087;SHT30;62445;48.406;-4.518;2023-08-21T07:54:01;25.90;60.89
74087;SHT30;62445;48.406;-4.518;2023-08-21T07:56:27;25.92;60.81
74087;SHT30;62445;48.406;-4.518;2023-08-21T07:58:52;25.93;60.86
74087;SHT30;62445;48.406;-4.518;2023-08-21T08:01:17;25.96;60.89
74087;SHT30;62445;48.406;-4.518;2023-08-21T08:03:45;25.96;60.83
74087;SHT30;62445;48.406;-4.518;2023-08-21T08:06:10;25.97;60.75
74087;SHT30;62445;48.406;-4.518;2023-08-21T08:08:36;25.99;60.80
74087;SHT30;62445;48.406;-4.518;2023-08-21T08:11:04;25.97;60.80
74087;SHT30;62445;48.406;-4.518;2023-08-21T08:13:31;25.97;60.71
74087;SHT30;62445;48.406;-4.518;2023-08-21T08:15:57;26.00;60.62
74087;SHT30;62445;48.406;-4.518;2023-08-21T08:18:22;26.00;60.73
74087;SHT30;62445;48.406;-4.518;2023-08-21T08:20:48;26.03;60.73
74087;SHT30;62445;48.406;-4.518;2023-08-21T08:23:14;26.01;60.84
74087;SHT30;62445;48.406;-4.518;2023-08-21T08:25:39;26.03;60.78
74087;SHT30;62445;48.406;-4.518;2023-08-21T08:28:05;26.04;60.67
74087;SHT30;62445;48.406;-4.518;2023-08-21T08:30:31;26.03;60.66
74087;SHT30;62445;48.406;-4.518;2023-08-21T08:32:56;26.04;60.56
74087;SHT30;62445;48.406;-4.518;2023-08-21T08:35:21;26.04;60.54
74087;SHT30;62445;48.406;-4.518;2023-08-21T08:37:47;26.03;60.55
74087;SHT30;62445;48.406;-4.518;2023-08-21T08:40:13;26.04;60.61
74087;SHT30;62445;48.406;-4.518;2023-08-21T08:42:38;26.03;60.61
74087;SHT30;62445;48.406;-4.518;2023-08-21T08:45:05;25.99;60.72
74087;SHT30;62445;48.406;-4.518;2023-08-21T08:47:34;26.01;60.78
74087;SHT30;62445;48.406;-4.518;2023-08-21T08:50:04;26.01;60.81
74087;SHT30;62445;48.406;-4.518;2023-08-21T08:52:35;26.01;60.88
74087;SHT30;62445;48.406;-4.518;2023-08-21T08:55:01;26.00;60.86
74087;SHT30;62445;48.406;-4.518;2023-08-21T08:57:27;26.01;60.85
74087;SHT30;62445;48.406;-4.518;2023-08-21T08:59:53;25.99;60.80
74087;SHT30;62445;48.406;-4.518;2023-08-21T09:02:18;26.00;60.84
74087;SHT30;62445;48.406;-4.518;2023-08-21T09:04:44;25.99;60.90
74087;SHT30;62445;48.406;-4.518;2023-08-21T09:07:11;25.97;60.83
74087;SHT30;62445;48.406;-4.518;2023-08-21T09:09:47;25.99;60.86
74087;SHT30;62445;48.406;-4.518;2023-08-21T09:12:15;25.99;60.89
74087;SHT30;62445;48.406;-4.518;2023-08-21T09:14:41;25.97;60.90
74087;SHT30;62445;48.406;-4.518;2023-08-21T09:17:07;25.97;60.88
74087;SHT30;62445;48.406;-4.518;2023-08-21T09:19:32;25.96;60.97
74087;SHT30;62445;48.406;-4.518;2023-08-21T09:21:58;25.96;60.90
74087;SHT30;62445;48.406;-4.518;2023-08-21T09:24:24;25.93;60.90
74087;SHT30;62445;48.406;-4.518;2023-08-21T09:26:50;25.96;60.99
74087;SHT30;62445;48.406;-4.518;2023-08-21T09:29:16;25.96;60.97
74087;SHT30;62445;48.406;-4.518;2023-08-21T09:31:42;25.93;61.07
74087;SHT30;62445;48.406;-4.518;2023-08-21T09:34:10;25.94;61.03
74087;SHT30;62445;48.406;-4.518;2023-08-21T09:36:38;25.94;61.02
74087;SHT30;62445;48.406;-4.518;2023-08-21T09:39:04;25.93;61.02
74087;SHT30;62445;48.406;-4.518;2023-08-21T09:41:31;25.94;61.01
74087;SHT30;62445;48.406;-4.518;2023-08-21T09:44:01;25.94;61.01
74087;SHT30;62445;48.406;-4.518;2023-08-21T09:46:27;25.94;61.04
74087;SHT30;62445;48.406;-4.518;2023-08-21T09:48:53;25.94;61.10
74087;SHT30;62445;48.406;-4.518;2023-08-21T09:51:19;25.96;61.13
74087;SHT30;62445;48.406;-4.518;2023-08-21T09:53:44;25.94;61.09
74087;SHT30;62445;48.406;-4.518;2023-08-21T09:56:11;25.97;61.08
74087;SHT30;62445;48.406;-4.518;2023-08-21T09:58:37;25.96;61.01
74087;SHT30;62445;48.406;-4.518;2023-08-21T10:01:07;25.99;61.02
74087;SHT30;62445;48.406;-4.518;2023-08-21T10:03:41;26.00;60.96
74087;SHT30;62445;48.406;-4.518;2023-08-21T10:06:09;26.06;60.88
74087;SHT30;62445;48.406;-4.518;2023-08-21T10:08:39;26.06;60.78
74087;SHT30;62445;48.406;-4.518;2023-08-21T10:11:08;26.10;60.73
74087;SHT30;62445;48.406;-4.518;2023-08-21T10:13:36;26.13;60.74
74087;SHT30;62445;48.406;-4.518;2023-08-21T10:16:02;26.18;60.69
74087;SHT30;62445;48.406;-4.518;2023-08-21T10:18:32;26.18;60.60
74087;SHT30;62445;48.406;-4.518;2023-08-21T10:21:17;26.23;60.45
74087;SHT30;62445;48.406;-4.518;2023-08-21T10:23:50;26.21;60.53
74087;SHT30;62445;48.406;-4.518;2023-08-21T10:26:19;26.20;60.61
74087;SHT30;62445;48.406;-4.518;2023-08-21T10:28:50;26.21;60.62
74087;SHT30;62445;48.406;-4.518;2023-08-21T10:31:38;26.20;60.60
74087;SHT30;62445;48.406;-4.518;2023-08-21T10:34:13;26.23;60.60
74087;SHT30;62445;48.406;-4.518;2023-08-21T10:39:23;26.26;60.52
74087;SHT30;62445;48.406;-4.518;2023-08-21T10:42:09;26.28;60.46
74087;SHT30;62445;48.406;-4.518;2023-08-21T10:44:49;26.34;60.38
74087;SHT30;62445;48.406;-4.518;2023-08-21T10:47:22;26.34;60.44
74087;SHT30;62445;48.406;-4.518;2023-08-21T10:49:54;26.38;60.34
74087;SHT30;62445;48.406;-4.518;2023-08-21T10:52:30;26.40;60.23
74087;SHT30;62445;48.406;-4.518;2023-08-21T10:54:58;26.43;60.14
74087;SHT30;62445;48.406;-4.518;2023-08-21T10:57:26;26.47;60.07
74087;SHT30;62445;48.406;-4.518;2023-08-21T11:00:07;26.49;60.05
74087;SHT30;62445;48.406;-4.518;2023-08-21T11:02:38;26.51;59.97
74087;SHT30;62445;48.406;-4.518;2023-08-21T11:05:05;26.51;59.99
74087;SHT30;62445;48.406;-4.518;2023-08-21T11:07:36;26.51;59.96
74087;SHT30;62445;48.406;-4.518;2023-08-21T11:10:01;26.51;59.95
74087;SHT30;62445;48.406;-4.518;2023-08-21T11:12:28;26.52;59.95
74087;SHT30;62445;48.406;-4.518;2023-08-21T11:14:53;26.54;59.94
74087;SHT30;62445;48.406;-4.518;2023-08-21T11:17:19;26.55;59.90
74087;SHT30;62445;48.406;-4.518;2023-08-21T11:19:44;26.57;59.92
74087;SHT30;62445;48.406;-4.518;2023-08-21T11:22:11;26.57;59.90
74087;SHT30;62445;48.406;-4.518;2023-08-21T11:27:13;26.61;59.85
74087;SHT30;62445;48.406;-4.518;2023-08-21T11:29:46;26.61;59.87
74087;SHT30;62445;48.406;-4.518;2023-08-21T11:32:17;26.62;59.83
74087;SHT30;62445;48.406;-4.518;2023-08-21T11:37:16;26.64;59.80
74087;SHT30;62445;48.406;-4.518;2023-08-21T11:39:53;26.64;59.80
74087;SHT30;62445;48.406;-4.518;2023-08-21T11:42:20;26.65;59.79
74087;SHT30;62445;48.406;-4.518;2023-08-21T11:44:52;26.65;59.82
74087;SHT30;62445;48.406;-4.518;2023-08-21T11:47:21;26.68;59.75
74087;SHT30;62445;48.406;-4.518;2023-08-21T11:49:47;26.69;59.74
74087;SHT30;62445;48.406;-4.518;2023-08-21T11:52:21;26.69;59.75
74087;SHT30;62445;48.406;-4.518;2023-08-21T11:54:48;26.72;59.67
74087;SHT30;62445;48.406;-4.518;2023-08-21T11:57:14;26.72;59.65
74087;SHT30;62445;48.406;-4.518;2023-08-21T11:59:41;26.75;59.63
74087;SHT30;62445;48.406;-4.518;2023-08-21T12:04:35;26.74;59.63
74087;SHT30;62445;48.406;-4.518;2023-08-21T12:07:00;26.75;59.61
74087;SHT30;62445;48.406;-4.518;2023-08-21T12:09:26;26.78;59.67
74087;SHT30;62445;48.406;-4.518;2023-08-21T12:11:52;26.78;59.59
74087;SHT30;62445;48.406;-4.518;2023-08-21T12:14:17;26.79;59.60
74087;SHT30;62445;48.406;-4.518;2023-08-21T12:16:42;26.82;59.58
74087;SHT30;62445;48.406;-4.518;2023-08-21T12:19:08;26.82;59.53
74087;SHT30;62445;48.406;-4.518;2023-08-21T12:21:35;26.84;59.55
74087;SHT30;62445;48.406;-4.518;2023-08-21T12:24:04;26.84;59.53
74087;SHT30;62445;48.406;-4.518;2023-08-21T12:26:30;26.86;59.53
74087;SHT30;62445;48.406;-4.518;2023-08-21T12:28:55;26.88;59.46
74087;SHT30;62445;48.406;-4.518;2023-08-21T12:31:21;26.91;59.51
74087;SHT30;62445;48.406;-4.518;2023-08-21T12:33:47;26.88;59.47
74087;SHT30;62445;48.406;-4.518;2023-08-21T12:36:12;26.92;59.40
74087;SHT30;62445;48.406;-4.518;2023-08-21T12:38:38;26.92;59.41
74087;SHT30;62445;48.406;-4.518;2023-08-21T12:41:03;26.94;59.42
74087;SHT30;62445;48.406;-4.518;2023-08-21T12:43:29;26.95;59.37
74087;SHT30;62445;48.406;-4.518;2023-08-21T12:45:55;26.98;59.37
74087;SHT30;62445;48.406;-4.518;2023-08-21T12:48:20;26.99;59.33
74087;SHT30;62445;48.406;-4.518;2023-08-21T12:50:46;27.00;59.31
74087;SHT30;62445;48.406;-4.518;2023-08-21T12:53:11;27.00;59.32
74087;SHT30;62445;48.406;-4.518;2023-08-21T12:55:37;27.05;59.29
74087;SHT30;62445;48.406;-4.518;2023-08-21T12:58:02;27.02;59.27
74087;SHT30;62445;48.406;-4.518;2023-08-21T13:00:28;27.02;59.21
74087;SHT30;62445;48.406;-4.518;2023-08-21T13:02:53;27.06;59.14
74087;SHT30;62445;48.406;-4.518;2023-08-21T13:05:18;27.07;59.00
74087;SHT30;62445;48.406;-4.518;2023-08-21T13:07:44;27.10;59.11
74087;SHT30;62445;48.406;-4.518;2023-08-21T13:10:09;27.16;59.10
74087;SHT30;62445;48.406;-4.518;2023-08-21T13:12:35;27.14;59.09
74087;SHT30;62445;48.406;-4.518;2023-08-21T13:15:02;27.16;59.08
74087;SHT30;62445;48.406;-4.518;2023-08-21T13:17:28;27.19;59.05
74087;SHT30;62445;48.406;-4.518;2023-08-21T13:19:53;27.17;58.99
74087;SHT30;62445;48.406;-4.518;2023-08-21T13:22:18;27.19;58.66
74087;SHT30;62445;48.406;-4.518;2023-08-21T13:24:44;27.27;58.16
74087;SHT30;62445;48.406;-4.518;2023-08-21T13:27:10;27.30;58.01
74087;SHT30;62445;48.406;-4.518;2023-08-21T13:29:35;27.36;57.70
74087;SHT30;62445;48.406;-4.518;2023-08-21T13:32:01;27.40;57.16
74087;SHT30;62445;48.406;-4.518;2023-08-21T13:34:26;27.42;57.33
74087;SHT30;62445;48.406;-4.518;2023-08-21T13:36:51;27.44;57.06
74087;SHT30;62445;48.406;-4.518;2023-08-21T13:39:17;27.47;57.01
74087;SHT30;62445;48.406;-4.518;2023-08-21T13:41:43;27.49;55.98
74087;SHT30;62445;48.406;-4.518;2023-08-21T13:44:08;27.50;55.98
74087;SHT30;62445;48.406;-4.518;2023-08-21T13:46:34;27.54;56.14
74087;SHT30;62445;48.406;-4.518;2023-08-21T13:49:00;27.54;55.67
74087;SHT30;62445;48.406;-4.518;2023-08-21T13:51:25;27.55;55.52
74087;SHT30;62445;48.406;-4.518;2023-08-21T13:53:51;27.57;54.97
74087;SHT30;62445;48.406;-4.518;2023-08-21T13:56:16;27.58;55.23
74087;SHT30;62445;48.406;-4.518;2023-08-21T13:58:41;27.58;54.97
74087;SHT30;62445;48.406;-4.518;2023-08-21T14:01:07;27.61;54.87
74087;SHT30;62445;48.406;-4.518;2023-08-21T14:03:33;27.61;54.65
74087;SHT30;62445;48.406;-4.518;2023-08-21T14:05:59;27.65;53.52
74087;SHT30;62445;48.406;-4.518;2023-08-21T14:08:25;27.64;53.35
74087;SHT30;62445;48.406;-4.518;2023-08-21T14:10:50;27.71;53.34
74087;SHT30;62445;48.406;-4.518;2023-08-21T14:13:16;27.72;53.22
74087;SHT30;62445;48.406;-4.518;2023-08-21T14:15:41;27.77;53.21
74087;SHT30;62445;48.406;-4.518;2023-08-21T14:18:07;27.76;53.37
74087;SHT30;62445;48.406;-4.518;2023-08-21T14:20:32;27.72;53.55
74087;SHT30;62445;48.406;-4.518;2023-08-21T14:22:58;27.71;53.73
74087;SHT30;62445;48.406;-4.518;2023-08-21T14:25:23;27.70;53.76
74087;SHT30;62445;48.406;-4.518;2023-08-21T14:27:48;27.70;53.99
74087;SHT30;62445;48.406;-4.518;2023-08-21T14:30:14;27.71;54.06
74087;SHT30;62445;48.406;-4.518;2023-08-21T14:32:40;27.70;54.21
74087;SHT30;62445;48.406;-4.518;2023-08-21T14:35:06;27.70;54.31
74087;SHT30;62445;48.406;-4.518;2023-08-21T14:37:37;27.72;54.53
74087;SHT30;62445;48.406;-4.518;2023-08-21T14:40:04;27.71;54.53
74087;SHT30;62445;48.406;-4.518;2023-08-21T14:42:33;27.72;54.68
74087;SHT30;62445;48.406;-4.518;2023-08-21T14:44:59;27.70;54.93
74087;SHT30;62445;48.406;-4.518;2023-08-21T14:47:24;27.68;55.07
74087;SHT30;62445;48.406;-4.518;2023-08-21T14:49:50;27.67;55.20
74087;SHT30;62445;48.406;-4.518;2023-08-21T14:52:16;27.65;55.45
74087;SHT30;62445;48.406;-4.518;2023-08-21T14:54:42;27.64;55.57
74087;SHT30;62445;48.406;-4.518;2023-08-21T14:57:07;27.65;55.39
74087;SHT30;62445;48.406;-4.518;2023-08-21T14:59:33;27.67;55.39
74087;SHT30;62445;48.406;-4.518;2023-08-21T15:01:59;27.68;55.37
74087;SHT30;62445;48.406;-4.518;2023-08-21T15:04:24;27.67;55.49
74087;SHT30;62445;48.406;-4.518;2023-08-21T15:06:50;27.65;55.59
74087;SHT30;62445;48.406;-4.518;2023-08-21T15:09:15;27.68;55.68
74087;SHT30;62445;48.406;-4.518;2023-08-21T15:11:40;27.67;55.69
74087;SHT30;62445;48.406;-4.518;2023-08-21T15:14:10;27.70;55.74
74087;SHT30;62445;48.406;-4.518;2023-08-21T15:16:37;27.72;55.81
74087;SHT30;62445;48.406;-4.518;2023-08-21T15:19:02;27.81;55.73
74087;SHT30;62445;48.406;-4.518;2023-08-21T15:21:28;27.92;55.57
74087;SHT30;62445;48.406;-4.518;2023-08-21T15:23:53;28.05;55.35